sensor_id;sensor_type;location;lat;lon;timestamp;pressure;altitude;pressure_sealevel;temperature;humidity
20793;BME280;10556;-33.662;151.094;2024-01-11T00:03:06;99549.03;;;35.20;100.00
20793;BME280;10556;-33.662;151.094;2024-01-11T00:08:09;99549.22;;;34.54;99.91
20793;BME280;10556;-33.662;151.094;2024-01-11T00:13:14;99556.06;;;32.03;100.00
20793;BME280;10556;-33.662;151.094;2024-01-11T00:18:17;99556.50;;;31.94;100.00
20793;BME280;10556;-33.662;151.094;2024-01-11T00:23:19;99553.31;;;30.34;100.00
20793;BME280;10556;-33.662;151.094;2024-01-11T00:28:23;99559.84;;;31.63;100.00
20793;BME280;10556;-33.662;151.094;2024-01-11T00:33:26;99563.88;;;34.56;100.00
20793;BME280;10556;-33.662;151.094;2024-01-11T00:38:28;99569.63;;;35.41;90.13
20793;BME280;10556;-33.662;151.094;2024-01-11T00:43:33;99560.28;;;37.09;75.11
20793;BME280;10556;-33.662;151.094;2024-01-11T00:48:35;99557.22;;;36.84;66.87
20793;BME280;10556;-33.662;151.094;2024-01-11T00:53:38;99558.50;;;34.33;94.96
20793;BME280;10556;-33.662;151.094;2024-01-11T00:58:42;99554.72;;;32.32;100.00
20793;BME280;10556;-33.662;151.094;2024-01-11T01:03:44;99555.94;;;33.79;98.67
20793;BME280;10556;-33.662;151.094;2024-01-11T01:08:47;99547.91;;;34.03;92.98
20793;BME280;10556;-33.662;151.094;2024-01-11T01:13:51;99551.00;;;32.02;100.00
20793;BME280;10556;-33.662;151.094;2024-01-11T01:18:53;99546.88;;;30.43;100.00
20793;BME280;10556;-33.662;151.094;2024-01-11T01:23:56;99544.47;;;32.11;100.00
20793;BME280;10556;-33.662;151.094;2024-01-11T01:29:00;99542.03;;;36.34;75.90
20793;BME280;10556;-33.662;151.094;2024-01-11T01:34:03;99535.94;;;35.07;80.25
20793;BME280;10556;-33.662;151.094;2024-01-11T01:39:05;99539.56;;;32.53;93.23
20793;BME280;10556;-33.662;151.094;2024-01-11T01:44:10;99531.38;;;31.07;100.00
20793;BME280;10556;-33.662;151.094;2024-01-11T01:49:12;99522.03;;;31.11;100.00
20793;BME280;10556;-33.662;151.094;2024-01-11T01:54:17;99526.09;;;31.07;100.00
20793;BME280;10556;-33.662;151.094;2024-01-11T01:59:23;99532.69;;;31.63;100.00
20793;BME280;10556;-33.662;151.094;2024-01-11T02:04:26;99522.06;;;34.58;93.37
20793;BME280;10556;-33.662;151.094;2024-01-11T02:09:31;99520.13;;;32.97;98.55
20793;BME280;10556;-33.662;151.094;2024-01-11T02:14:38;99534.00;;;31.91;100.00
20793;BME280;10556;-33.662;151.094;2024-01-11T02:19:41;99517.88;;;34.28;92.00
20793;BME280;10556;-33.662;151.094;2024-01-11T02:24:45;99516.31;;;32.93;97.86
20793;BME280;10556;-33.662;151.094;2024-01-11T02:29:48;99529.97;;;31.82;100.00
20793;BME280;10556;-33.662;151.094;2024-01-11T02:34:51;99526.34;;;31.77;100.00
20793;BME280;10556;-33.662;151.094;2024-01-11T02:39:56;99516.88;;;33.81;96.41
20793;BME280;10556;-33.662;151.094;2024-01-11T02:44:59;99523.16;;;33.43;93.49
20793;BME280;10556;-33.662;151.094;2024-01-11T02:50:01;99518.97;;;34.20;89.18
20793;BME280;10556;-33.662;151.094;2024-01-11T02:55:07;99523.63;;;31.96;100.00
20793;BME280;10556;-33.662;151.094;2024-01-11T03:00:11;99529.22;;;31.69;100.00
20793;BME280;10556;-33.662;151.094;2024-01-11T03:05:13;99519.34;;;32.71;97.22
20793;BME280;10556;-33.662;151.094;2024-01-11T03:10:18;99529.22;;;31.69;100.00
20793;BME280;10556;-33.662;151.094;2024-01-11T03:15:20;99530.31;;;31.35;100.00
20793;BME280;10556;-33.662;151.094;2024-01-11T03:20:23;99548.78;;;31.02;100.00
20793;BME280;10556;-33.662;151.094;2024-01-11T03:25:30;99540.53;;;32.58;100.00
20793;BME280;10556;-33.662;151.094;2024-01-11T03:30:32;99545.56;;;33.77;92.38
20793;BME280;10556;-33.662;151.094;2024-01-11T03:35:35;99534.91;;;34.32;84.40
20793;BME280;10556;-33.662;151.094;2024-01-11T03:40:39;99546.34;;;32.73;91.53
20793;BME280;10556;-33.662;151.094;2024-01-11T03:45:42;99552.94;;;31.69;100.00
20793;BME280;10556;-33.662;151.094;2024-01-11T03:50:45;99545.50;;;31.46;100.00
20793;BME280;10556;-33.662;151.094;2024-01-11T03:55:51;99531.75;;;32.33;100.00
20793;BME280;10556;-33.662;151.094;2024-01-11T04:00:53;99536.06;;;32.65;96.32
20793;BME280;10556;-33.662;151.094;2024-01-11T04:05:56;99530.19;;;31.81;100.00
20793;BME280;10556;-33.662;151.094;2024-01-11T04:11:02;99534.91;;;31.66;100.00
20793;BME280;10556;-33.662;151.094;2024-01-11T04:16:05;99527.13;;;32.60;100.00
20793;BME280;10556;-33.662;151.094;2024-01-11T04:21:08;99522.50;;;33.84;91.47
20793;BME280;10556;-33.662;151.094;2024-01-11T04:26:23;99532.22;;;34.62;79.88
20793;BME280;10556;-33.662;151.094;2024-01-11T04:31:27;99528.63;;;34.56;85.75
20793;BME280;10556;-33.662;151.094;2024-01-11T04:36:29;99524.69;;;34.77;81.82
20793;BME280;10556;-33.662;151.094;2024-01-11T04:41:35;99530.78;;;35.00;77.38
20793;BME280;10556;-33.662;151.094;2024-01-11T04:46:37;99533.56;;;32.95;92.72
20793;BME280;10556;-33.662;151.094;2024-01-11T04:51:40;99516.56;;;32.60;96.29
20793;BME280;10556;-33.662;151.094;2024-01-11T04:56:45;99517.50;;;32.72;95.74
20793;BME280;10556;-33.662;151.094;2024-01-11T05:01:47;99532.34;;;31.97;100.00
20793;BME280;10556;-33.662;151.094;2024-01-11T05:06:52;99527.69;;;32.93;100.00
20793;BME280;10556;-33.662;151.094;2024-01-11T05:11:56;99518.38;;;33.34;94.23
20793;BME280;10556;-33.662;151.094;2024-01-11T05:17:04;99524.72;;;33.08;90.96
20793;BME280;10556;-33.662;151.094;2024-01-11T05:22:06;99528.72;;;30.88;100.00
20793;BME280;10556;-33.662;151.094;2024-01-11T05:27:11;99520.19;;;30.66;100.00
20793;BME280;10556;-33.662;151.094;2024-01-11T05:32:13;99520.25;;;29.99;100.00
20793;BME280;10556;-33.662;151.094;2024-01-11T05:37:17;99514.44;;;30.16;100.00
20793;BME280;10556;-33.662;151.094;2024-01-11T05:42:21;99516.50;;;30.34;100.00
20793;BME280;10556;-33.662;151.094;2024-01-11T05:47:23;99514.59;;;30.08;100.00
20793;BME280;10556;-33.662;151.094;2024-01-11T05:52:26;99518.13;;;29.12;100.00
20793;BME280;10556;-33.662;151.094;2024-01-11T05:57:30;99513.34;;;29.91;100.00
20793;BME280;10556;-33.662;151.094;2024-01-11T06:02:33;99517.50;;;29.79;100.00
20793;BME280;10556;-33.662;151.094;2024-01-11T06:07:35;99530.22;;;28.64;100.00
20793;BME280;10556;-33.662;151.094;2024-01-11T06:12:40;99518.91;;;29.06;100.00
20793;BME280;10556;-33.662;151.094;2024-01-11T06:17:43;99512.75;;;29.55;100.00
20793;BME280;10556;-33.662;151.094;2024-01-11T06:22:47;99520.13;;;28.82;100.00
20793;BME280;10556;-33.662;151.094;2024-01-11T06:27:53;99522.75;;;30.26;100.00
20793;BME280;10556;-33.662;151.094;2024-01-11T06:32:56;99525.94;;;30.02;100.00
20793;BME280;10556;-33.662;151.094;2024-01-11T06:37:58;99529.69;;;28.90;100.00
20793;BME280;10556;-33.662;151.094;2024-01-11T06:43:03;99539.78;;;28.93;100.00
20793;BME280;10556;-33.662;151.094;2024-01-11T06:48:06;99537.59;;;29.24;100.00
20793;BME280;10556;-33.662;151.094;2024-01-11T06:53:09;99535.94;;;28.68;100.00
20793;BME280;10556;-33.662;151.094;2024-01-11T06:58:13;99550.44;;;29.34;100.00
20793;BME280;10556;-33.662;151.094;2024-01-11T07:03:16;99551.00;;;28.08;100.00
20793;BME280;10556;-33.662;151.094;2024-01-11T07:08:20;99552.34;;;28.34;100.00
20793;BME280;10556;-33.662;151.094;2024-01-11T07:13:24;99565.22;;;27.99;100.00
20793;BME280;10556;-33.662;151.094;2024-01-11T07:18:26;99557.53;;;28.48;100.00
20793;BME280;10556;-33.662;151.094;2024-01-11T07:23:30;99556.81;;;29.25;100.00
20793;BME280;10556;-33.662;151.094;2024-01-11T07:28:34;99567.69;;;28.37;100.00
20793;BME280;10556;-33.662;151.094;2024-01-11T07:33:36;99577.19;;;26.98;100.00
20793;BME280;10556;-33.662;151.094;2024-01-11T07:38:40;99581.31;;;26.69;100.00
20793;BME280;10556;-33.662;151.094;2024-01-11T07:43:44;99582.59;;;27.48;100.00
20793;BME280;10556;-33.662;151.094;2024-01-11T07:48:46;99589.34;;;28.45;100.00
20793;BME280;10556;-33.662;151.094;2024-01-11T07:53:49;99599.66;;;27.82;100.00
20793;BME280;10556;-33.662;151.094;2024-01-11T07:58:53;99605.28;;;27.04;100.00
20793;BME280;10556;-33.662;151.094;2024-01-11T08:03:56;99616.94;;;26.39;100.00
20793;BME280;10556;-33.662;151.094;2024-01-11T08:08:58;99622.25;;;26.23;100.00
20793;BME280;10556;-33.662;151.094;2024-01-11T08:14:04;99638.47;;;26.02;100.00
20793;BME280;10556;-33.662;151.094;2024-01-11T08:19:06;99641.81;;;25.80;100.00
20793;BME280;10556;-33.662;151.094;2024-01-11T08:24:09;99642.47;;;25.58;100.00
20793;BME280;10556;-33.662;151.094;2024-01-11T08:29:13;99644.25;;;25.49;100.00
20793;BME280;10556;-33.662;151.094;2024-01-11T08:34:16;99639.22;;;25.32;100.00
20793;BME280;10556;-33.662;151.094;2024-01-11T08:39:19;99652.91;;;25.09;100.00
20793;BME280;10556;-33.662;151.094;2024-01-11T08:44:23;99644.03;;;24.86;100.00
20793;BME280;10556;-33.662;151.094;2024-01-11T08:49:26;99653.50;;;24.79;100.00
20793;BME280;10556;-33.662;151.094;2024-01-11T08:54:28;99656.38;;;24.60;100.00
20793;BME280;10556;-33.662;151.094;2024-01-11T08:59:32;99667.22;;;24.47;100.00
20793;BME280;10556;-33.662;151.094;2024-01-11T09:04:35;99677.00;;;24.45;100.00
20793;BME280;10556;-33.662;151.094;2024-01-11T09:09:37;99684.16;;;24.43;100.00
20793;BME280;10556;-33.662;151.094;2024-01-11T09:14:42;99675.34;;;24.36;100.00
20793;BME280;10556;-33.662;151.094;2024-01-11T09:19:44;99681.66;;;24.08;100.00
20793;BME280;10556;-33.662;151.094;2024-01-11T09:24:47;99688.25;;;23.94;100.00
20793;BME280;10556;-33.662;151.094;2024-01-11T09:29:51;99692.38;;;23.79;100.00
20793;BME280;10556;-33.662;151.094;2024-01-11T09:34:53;99705.88;;;23.74;100.00
20793;BME280;10556;-33.662;151.094;2024-01-11T09:39:56;99713.03;;;23.72;100.00
20793;BME280;10556;-33.662;151.094;2024-01-11T09:45:01;99710.88;;;23.68;100.00
20793;BME280;10556;-33.662;151.094;2024-01-11T09:50:05;99716.72;;;23.70;100.00
20793;BME280;10556;-33.662;151.094;2024-01-11T09:55:09;99721.75;;;23.63;100.00
20793;BME280;10556;-33.662;151.094;2024-01-11T10:00:16;99723.53;;;23.63;100.00
20793;BME280;10556;-33.662;151.094;2024-01-11T10:05:20;99732.59;;;23.59;100.00
20793;BME280;10556;-33.662;151.094;2024-01-11T10:10:22;99717.72;;;23.51;100.00
20793;BME280;10556;-33.662;151.094;2024-01-11T10:15:27;99728.00;;;23.53;100.00
20793;BME280;10556;-33.662;151.094;2024-01-11T10:20:29;99724.69;;;23.33;100.00
20793;BME280;10556;-33.662;151.094;2024-01-11T10:25:33;99725.59;;;23.24;100.00
20793;BME280;10556;-33.662;151.094;2024-01-11T10:30:37;99741.25;;;23.14;100.00
20793;BME280;10556;-33.662;151.094;2024-01-11T10:35:40;99738.66;;;23.14;100.00
20793;BME280;10556;-33.662;151.094;2024-01-11T10:40:44;99737.38;;;23.18;100.00
20793;BME280;10556;-33.662;151.094;2024-01-11T10:45:49;99745.19;;;23.18;100.00
20793;BME280;10556;-33.662;151.094;2024-01-11T10:50:57;99746.97;;;23.18;100.00
20793;BME280;10556;-33.662;151.094;2024-01-11T10:56:01;99747.88;;;23.26;100.00
20793;BME280;10556;-33.662;151.094;2024-01-11T11:01:08;99754.63;;;23.19;100.00
20793;BME280;10556;-33.662;151.094;2024-01-11T11:06:11;99759.69;;;23.21;100.00
20793;BME280;10556;-33.662;151.094;2024-01-11T11:11:14;99749.56;;;23.18;100.00
20793;BME280;10556;-33.662;151.094;2024-01-11T11:16:19;99755.22;;;23.13;100.00
20793;BME280;10556;-33.662;151.094;2024-01-11T11:21:22;99765.16;;;23.00;100.00
20793;BME280;10556;-33.662;151.094;2024-01-11T11:26:26;99755.31;;;22.94;100.00
20793;BME280;10556;-33.662;151.094;2024-01-11T11:31:45;99761.22;;;22.96;100.00
20793;BME280;10556;-33.662;151.094;2024-01-11T11:36:48;99759.00;;;23.01;100.00
20793;BME280;10556;-33.662;151.094;2024-01-11T11:41:53;99756.44;;;22.91;100.00
20793;BME280;10556;-33.662;151.094;2024-01-11T11:47:18;99751.97;;;22.84;100.00
20793;BME280;10556;-33.662;151.094;2024-01-11T11:52:21;99768.44;;;22.65;100.00
20793;BME280;10556;-33.662;151.094;2024-01-11T11:57:25;99769.38;;;22.64;100.00
20793;BME280;10556;-33.662;151.094;2024-01-11T12:02:30;99766.00;;;22.64;100.00
20793;BME280;10556;-33.662;151.094;2024-01-11T12:07:33;99765.00;;;22.74;100.00
20793;BME280;10556;-33.662;151.094;2024-01-11T12:12:35;99760.19;;;22.79;100.00
20793;BME280;10556;-33.662;151.094;2024-01-11T12:17:42;99763.75;;;22.78;100.00
20793;BME280;10556;-33.662;151.094;2024-01-11T12:22:46;99766.00;;;22.64;100.00
20793;BME280;10556;-33.662;151.094;2024-01-11T12:27:50;99759.84;;;22.55;100.00
20793;BME280;10556;-33.662;151.094;2024-01-11T12:32:54;99766.72;;;22.46;100.00
20793;BME280;10556;-33.662;151.094;2024-01-11T12:37:59;99766.03;;;22.54;100.00
20793;BME280;10556;-33.662;151.094;2024-01-11T12:43:02;99768.31;;;22.67;100.00
20793;BME280;10556;-33.662;151.094;2024-01-11T12:48:09;99768.97;;;22.69;100.00
20793;BME280;10556;-33.662;151.094;2024-01-11T12:53:12;99771.03;;;22.65;100.00
20793;BME280;10556;-33.662;151.094;2024-01-11T12:58:20;99769.03;;;22.49;100.00
20793;BME280;10556;-33.662;151.094;2024-01-11T13:03:25;99768.50;;;22.46;100.00
20793;BME280;10556;-33.662;151.094;2024-01-11T13:08:28;99777.03;;;22.38;100.00
20793;BME280;10556;-33.662;151.094;2024-01-11T13:13:31;99763.63;;;22.33;100.00
20793;BME280;10556;-33.662;151.094;2024-01-11T13:18:35;99752.69;;;22.39;100.00
20793;BME280;10556;-33.662;151.094;2024-01-11T13:23:38;99746.53;;;22.31;100.00
20793;BME280;10556;-33.662;151.094;2024-01-11T13:28:43;99755.19;;;22.22;100.00
20793;BME280;10556;-33.662;151.094;2024-01-11T13:33:48;99754.53;;;22.20;100.00
20793;BME280;10556;-33.662;151.094;2024-01-11T13:38:51;99750.16;;;22.20;100.00
20793;BME280;10556;-33.662;151.094;2024-01-11T13:43:54;99745.72;;;22.30;100.00
20793;BME280;10556;-33.662;151.094;2024-01-11T13:49:08;99747.22;;;22.33;100.00
20793;BME280;10556;-33.662;151.094;2024-01-11T13:54:10;99738.91;;;22.29;100.00
20793;BME280;10556;-33.662;151.094;2024-01-11T13:59:13;99738.25;;;22.17;100.00
20793;BME280;10556;-33.662;151.094;2024-01-11T14:04:18;99745.91;;;22.19;100.00
20793;BME280;10556;-33.662;151.094;2024-01-11T14:09:20;99744.53;;;22.25;100.00
20793;BME280;10556;-33.662;151.094;2024-01-11T14:14:23;99735.88;;;22.34;100.00
20793;BME280;10556;-33.662;151.094;2024-01-11T14:19:28;99731.75;;;22.41;100.00
20793;BME280;10556;-33.662;151.094;2024-01-11T14:24:30;99720.09;;;22.45;100.00
20793;BME280;10556;-33.662;151.094;2024-01-11T14:29:35;99715.91;;;22.44;100.00
20793;BME280;10556;-33.662;151.094;2024-01-11T14:34:39;99707.44;;;22.32;100.00
20793;BME280;10556;-33.662;151.094;2024-01-11T14:39:42;99710.88;;;22.33;100.00
20793;BME280;10556;-33.662;151.094;2024-01-11T14:44:45;99689.81;;;22.36;100.00
20793;BME280;10556;-33.662;151.094;2024-01-11T14:49:52;99681.00;;;22.19;100.00
20793;BME280;10556;-33.662;151.094;2024-01-11T14:54:57;99684.28;;;22.11;100.00
20793;BME280;10556;-33.662;151.094;2024-01-11T15:00:01;99669.66;;;22.20;100.00
20793;BME280;10556;-33.662;151.094;2024-01-11T15:05:06;99661.09;;;22.37;100.00
20793;BME280;10556;-33.662;151.094;2024-01-11T15:10:11;99662.91;;;22.27;100.00
20793;BME280;10556;-33.662;151.094;2024-01-11T15:15:13;99660.34;;;22.17;100.00
20793;BME280;10556;-33.662;151.094;2024-01-11T15:20:19;99662.25;;;22.25;100.00
20793;BME280;10556;-33.662;151.094;2024-01-11T15:25:22;99657.13;;;22.43;100.00
20793;BME280;10556;-33.662;151.094;2024-01-11T15:30:24;99646.91;;;22.32;100.00
20793;BME280;10556;-33.662;151.094;2024-01-11T15:35:33;99651.78;;;22.44;100.00
20793;BME280;10556;-33.662;151.094;2024-01-11T15:40:37;99644.59;;;22.56;100.00
20793;BME280;10556;-33.662;151.094;2024-01-11T15:45:40;99648.69;;;22.58;100.00
20793;BME280;10556;-33.662;151.094;2024-01-11T15:50:48;99644.72;;;22.54;100.00
20793;BME280;10556;-33.662;151.094;2024-01-11T15:55:50;99641.16;;;22.55;100.00
20793;BME280;10556;-33.662;151.094;2024-01-11T16:00:54;99643.69;;;22.47;100.00
20793;BME280;10556;-33.662;151.094;2024-01-11T16:06:02;99638.06;;;22.52;100.00
20793;BME280;10556;-33.662;151.094;2024-01-11T16:11:05;99632.84;;;22.52;100.00
20793;BME280;10556;-33.662;151.094;2024-01-11T16:16:08;99627.66;;;22.52;100.00
20793;BME280;10556;-33.662;151.094;2024-01-11T16:21:15;99628.50;;;22.52;100.00
20793;BME280;10556;-33.662;151.094;2024-01-11T16:26:17;99622.16;;;22.55;100.00
20793;BME280;10556;-33.662;151.094;2024-01-11T16:31:20;99625.75;;;22.54;100.00
20793;BME280;10556;-33.662;151.094;2024-01-11T16:36:31;99614.38;;;22.55;100.00
20793;BME280;10556;-33.662;151.094;2024-01-11T16:41:38;99609.84;;;22.57;100.00
20793;BME280;10556;-33.662;151.094;2024-01-11T16:46:40;99611.78;;;22.55;100.00
20793;BME280;10556;-33.662;151.094;2024-01-11T16:51:45;99602.69;;;22.41;100.00
20793;BME280;10556;-33.662;151.094;2024-01-11T16:56:53;99608.53;;;22.26;100.00
20793;BME280;10556;-33.662;151.094;2024-01-11T17:01:57;99604.44;;;22.23;100.00
20793;BME280;10556;-33.662;151.094;2024-01-11T17:07:02;99601.66;;;22.34;100.00
20793;BME280;10556;-33.662;151.094;2024-01-11T17:12:06;99598.09;;;22.35;100.00
20793;BME280;10556;-33.662;151.094;2024-01-11T17:17:09;99596.31;;;22.36;100.00
20793;BME280;10556;-33.662;151.094;2024-01-11T17:22:14;99607.06;;;22.41;100.00
20793;BME280;10556;-33.662;151.094;2024-01-11T17:27:17;99607.31;;;22.47;100.00
20793;BME280;10556;-33.662;151.094;2024-01-11T17:32:19;99606.75;;;22.53;100.00
20793;BME280;10556;-33.662;151.094;2024-01-11T17:37:24;99615.56;;;22.60;100.00
20793;BME280;10556;-33.662;151.094;2024-01-11T17:42:26;99623.88;;;22.64;100.00
20793;BME280;10556;-33.662;151.094;2024-01-11T17:47:29;99631.13;;;22.70;100.00
20793;BME280;10556;-33.662;151.094;2024-01-11T17:52:33;99637.25;;;22.69;100.00
20793;BME280;10556;-33.662;151.094;2024-01-11T17:57:36;99638.06;;;22.70;100.00
20793;BME280;10556;-33.662;151.094;2024-01-11T18:02:38;99635.78;;;22.67;100.00
20793;BME280;10556;-33.662;151.094;2024-01-11T18:07:43;99647.44;;;22.63;100.00
20793;BME280;10556;-33.662;151.094;2024-01-11T18:12:45;99647.16;;;22.38;100.00
20793;BME280;10556;-33.662;151.094;2024-01-11T18:17:48;99657.00;;;21.98;100.00
20793;BME280;10556;-33.662;151.094;2024-01-11T18:22:55;99667.13;;;21.91;100.00
20793;BME280;10556;-33.662;151.094;2024-01-11T18:27:57;99672.19;;;21.83;100.00
20793;BME280;10556;-33.662;151.094;2024-01-11T18:32:59;99673.72;;;21.76;100.00
20793;BME280;10556;-33.662;151.094;2024-01-11T18:38:04;99679.56;;;21.78;100.00
20793;BME280;10556;-33.662;151.094;2024-01-11T18:43:06;99672.88;;;21.85;100.00
20793;BME280;10556;-33.662;151.094;2024-01-11T18:48:09;99681.72;;;21.92;100.00
20793;BME280;10556;-33.662;151.094;2024-01-11T18:53:13;99692.41;;;21.99;100.00
20793;BME280;10556;-33.662;151.094;2024-01-11T18:58:15;99690.31;;;22.02;100.00
20793;BME280;10556;-33.662;151.094;2024-01-11T19:03:18;99692.81;;;21.85;100.00
20793;BME280;10556;-33.662;151.094;2024-01-11T19:08:22;99706.34;;;21.69;100.00
20793;BME280;10556;-33.662;151.094;2024-01-11T19:13:25;99696.38;;;21.64;100.00
20793;BME280;10556;-33.662;151.094;2024-01-11T19:18:27;99698.84;;;21.66;100.00
20793;BME280;10556;-33.662;151.094;2024-01-11T19:23:31;99696.13;;;21.67;100.00
20793;BME280;10556;-33.662;151.094;2024-01-11T19:28:34;99703.22;;;21.65;100.00
20793;BME280;10556;-33.662;151.094;2024-01-11T19:33:36;99698.16;;;21.73;100.00
20793;BME280;10556;-33.662;151.094;2024-01-11T19:38:41;99704.41;;;22.09;100.00
20793;BME280;10556;-33.662;151.094;2024-01-11T19:43:43;99705.59;;;22.25;100.00
20793;BME280;10556;-33.662;151.094;2024-01-11T19:48:45;99708.75;;;22.46;100.00
20793;BME280;10556;-33.662;151.094;2024-01-11T19:53:50;99709.22;;;22.96;100.00
20793;BME280;10556;-33.662;151.094;2024-01-11T19:58:52;99720.53;;;23.40;100.00
20793;BME280;10556;-33.662;151.094;2024-01-11T20:03:55;99719.50;;;23.51;100.00
20793;BME280;10556;-33.662;151.094;2024-01-11T20:08:59;99722.09;;;23.51;100.00
20793;BME280;10556;-33.662;151.094;2024-01-11T20:14:01;99721.47;;;23.49;100.00
20793;BME280;10556;-33.662;151.094;2024-01-11T20:19:04;99714.22;;;23.42;100.00
20793;BME280;10556;-33.662;151.094;2024-01-11T20:24:08;99720.16;;;23.70;100.00
20793;BME280;10556;-33.662;151.094;2024-01-11T20:29:11;99736.13;;;23.93;100.00
20793;BME280;10556;-33.662;151.094;2024-01-11T20:34:13;99746.66;;;24.35;100.00
20793;BME280;10556;-33.662;151.094;2024-01-11T20:39:18;99754.47;;;24.35;100.00
20793;BME280;10556;-33.662;151.094;2024-01-11T20:44:20;99754.66;;;24.16;100.00
20793;BME280;10556;-33.662;151.094;2024-01-11T20:49:22;99760.09;;;24.05;100.00
20793;BME280;10556;-33.662;151.094;2024-01-11T20:54:27;99766.84;;;23.89;100.00
20793;BME280;10556;-33.662;151.094;2024-01-11T20:59:30;99763.81;;;23.76;100.00
20793;BME280;10556;-33.662;151.094;2024-01-11T21:04:33;99763.66;;;23.78;100.00
20793;BME280;10556;-33.662;151.094;2024-01-11T21:09:37;99768.94;;;23.86;100.00
20793;BME280;10556;-33.662;151.094;2024-01-11T21:14:39;99769.16;;;23.93;100.00
20793;BME280;10556;-33.662;151.094;2024-01-11T21:19:42;99783.19;;;24.00;100.00
20793;BME280;10556;-33.662;151.094;2024-01-11T21:24:46;99781.13;;;24.29;100.00
20793;BME280;10556;-33.662;151.094;2024-01-11T21:29:48;99776.06;;;24.53;100.00
20793;BME280;10556;-33.662;151.094;2024-01-11T21:34:51;99772.00;;;24.51;100.00
20793;BME280;10556;-33.662;151.094;2024-01-11T21:39:55;99767.66;;;25.01;100.00
20793;BME280;10556;-33.662;151.094;2024-01-11T21:44:59;99771.09;;;25.02;100.00
20793;BME280;10556;-33.662;151.094;2024-01-11T21:50:02;99776.84;;;25.22;100.00
20793;BME280;10556;-33.662;151.094;2024-01-11T21:55:08;99764.97;;;25.43;100.00
20793;BME280;10556;-33.662;151.094;2024-01-11T22:00:11;99766.72;;;25.18;100.00
20793;BME280;10556;-33.662;151.094;2024-01-11T22:05:15;99770.63;;;24.81;100.00
20793;BME280;10556;-33.662;151.094;2024-01-11T22:10:19;99764.91;;;24.69;100.00
20793;BME280;10556;-33.662;151.094;2024-01-11T22:15:23;99771.00;;;24.86;100.00
20793;BME280;10556;-33.662;151.094;2024-01-11T22:20:25;99767.84;;;25.08;100.00
20793;BME280;10556;-33.662;151.094;2024-01-11T22:25:31;99761.34;;;25.20;100.00
20793;BME280;10556;-33.662;151.094;2024-01-11T22:30:34;99759.00;;;24.93;100.00
20793;BME280;10556;-33.662;151.094;2024-01-11T22:35:36;99756.50;;;24.83;100.00
20793;BME280;10556;-33.662;151.094;2024-01-11T22:40:41;99764.44;;;25.24;100.00
20793;BME280;10556;-33.662;151.094;2024-01-11T22:45:44;99763.53;;;25.97;100.00
20793;BME280;10556;-33.662;151.094;2024-01-11T22:50:46;99758.16;;;25.99;100.00
20793;BME280;10556;-33.662;151.094;2024-01-11T22:55:50;99758.63;;;26.11;100.00
20793;BME280;10556;-33.662;151.094;2024-01-11T23:00:53;99752.44;;;26.03;100.00
20793;BME280;10556;-33.662;151.094;2024-01-11T23:05:55;99749.19;;;25.69;100.00
20793;BME280;10556;-33.662;151.094;2024-01-11T23:10:59;99755.06;;;25.55;100.00
20793;BME280;10556;-33.662;151.094;2024-01-11T23:16:02;99737.22;;;25.34;100.00
20793;BME280;10556;-33.662;151.094;2024-01-11T23:21:05;99751.84;;;26.57;100.00
20793;BME280;10556;-33.662;151.094;2024-01-11T23:26:10;99755.31;;;27.19;100.00
20793;BME280;10556;-33.662;151.094;2024-01-11T23:31:12;99754.53;;;27.64;100.00
20793;BME280;10556;-33.662;151.094;2024-01-11T23:36:14;99755.94;;;27.44;100.00
20793;BME280;10556;-33.662;151.094;2024-01-11T23:41:20;99759.56;;;27.43;100.00
20793;BME280;10556;-33.662;151.094;2024-01-11T23:46:22;99747.13;;;26.83;100.00
20793;BME280;10556;-33.662;151.094;2024-01-11T23:51:25;99750.31;;;25.50;100.00
20793;BME280;10556;-33.662;151.094;2024-01-11T23:56:31;99737.28;;;25.83;100.00
